createdAt,value
2019-03-09T00:01:55.513Z,8.05
2019-03-09T00:04:24.594Z,11.22
2019-03-09T00:06:53.674Z,7.85
2019-03-09T00:09:22.747Z,8.65
2019-03-09T00:11:51.828Z,8.60
2019-03-09T00:14:20.899Z,7.05
2019-03-09T00:16:49.978Z,10.28
2019-03-09T00:19:19.058Z,5.47
2019-03-09T00:21:48.134Z,7.67
2019-03-09T00:24:31.207Z,8.60
2019-03-09T00:27:01.918Z,7.00
2019-03-09T00:29:32.650Z,6.10
2019-03-09T00:32:03.359Z,8.73
2019-03-09T00:34:32.439Z,7.30
2019-03-09T00:37:01.801Z,8.15
2019-03-09T00:39:30.878Z,9.13
2019-03-09T00:41:59.960Z,10.25
2019-03-09T00:44:29.031Z,5.15
2019-03-09T00:46:58.394Z,9.20
2019-03-09T00:49:27.743Z,9.43
2019-03-09T00:51:56.817Z,6.15
2019-03-09T00:54:25.898Z,8.28
2019-03-09T00:56:54.974Z,9.50
2019-03-09T00:59:24.048Z,5.97
2019-03-09T01:01:53.382Z,7.65
2019-03-09T01:04:22.450Z,8.75
2019-03-09T01:06:51.522Z,6.92
2019-03-09T01:09:20.602Z,10.53
2019-03-09T01:11:49.675Z,9.33
2019-03-09T01:14:18.758Z,6.65
2019-03-09T01:16:48.899Z,7.28
2019-03-09T01:19:17.982Z,10.65
2019-03-09T01:21:47.056Z,5.70
2019-03-09T01:24:16.134Z,5.80
2019-03-09T01:26:45.203Z,8.95
2019-03-09T01:29:14.278Z,6.37
2019-03-09T01:31:43.350Z,10.68
2019-03-09T01:34:12.430Z,8.85
2019-03-09T01:36:41.764Z,9.43
2019-03-09T01:39:10.834Z,5.17
2019-03-09T01:41:40.363Z,6.90
2019-03-09T01:44:09.440Z,8.30
2019-03-09T01:46:38.518Z,7.20
2019-03-09T01:49:07.595Z,6.50
2019-03-09T01:51:36.738Z,6.92
2019-03-09T01:54:05.871Z,9.25
2019-03-09T01:56:34.945Z,6.05
2019-03-09T01:59:04.024Z,7.65
2019-03-09T02:01:33.342Z,6.70
2019-03-09T02:04:02.414Z,9.25
2019-03-09T02:06:31.494Z,11.10
2019-03-09T02:09:00.567Z,9.58
2019-03-09T02:11:31.266Z,6.65
2019-03-09T02:14:00.338Z,7.97
2019-03-09T02:16:29.414Z,5.58
2019-03-09T02:18:58.487Z,8.18
2019-03-09T02:21:27.566Z,5.35
2019-03-09T02:23:56.646Z,8.25
2019-03-09T02:26:25.718Z,7.35
2019-03-09T02:28:55.046Z,6.78
2019-03-09T02:31:24.119Z,6.45
2019-03-09T02:33:53.190Z,8.45
2019-03-09T02:36:22.267Z,4.37
2019-03-09T02:38:52.985Z,8.83
2019-03-09T02:41:23.131Z,8.03
2019-03-09T02:43:52.206Z,7.95
2019-03-09T02:46:21.607Z,7.28
2019-03-09T02:48:51.000Z,7.97
2019-03-09T02:51:20.085Z,10.50
2019-03-09T02:53:49.164Z,8.78
2019-03-09T02:56:19.223Z,6.30
2019-03-09T02:58:48.371Z,9.83
2019-03-09T03:01:21.475Z,8.95
2019-03-09T03:03:50.567Z,8.05
2019-03-09T03:06:20.006Z,8.88
2019-03-09T03:08:49.075Z,9.03
2019-03-09T03:11:18.155Z,8.55
2019-03-09T03:13:47.230Z,7.37
2019-03-09T03:16:16.298Z,7.15
2019-03-09T03:18:45.374Z,7.83
2019-03-09T03:21:14.464Z,11.75
2019-03-09T03:23:43.544Z,9.63
2019-03-09T03:26:12.615Z,11.70
2019-03-09T03:28:41.699Z,8.10
2019-03-09T03:31:10.775Z,10.48
2019-03-09T03:33:39.891Z,11.63
2019-03-09T03:36:09.014Z,10.10
2019-03-09T03:38:38.366Z,8.00
2019-03-09T03:41:07.455Z,7.10
2019-03-09T03:43:36.528Z,9.23
2019-03-09T03:46:05.603Z,8.45
2019-03-09T03:48:34.682Z,5.87
2019-03-09T03:51:03.761Z,11.33
2019-03-09T03:53:32.834Z,8.38
2019-03-09T03:56:01.915Z,10.00
2019-03-09T03:58:31.003Z,7.97
2019-03-09T04:01:00.063Z,6.10
2019-03-09T04:03:29.163Z,6.83
2019-03-09T04:05:58.223Z,8.23
2019-03-09T04:08:27.327Z,8.63
2019-03-09T04:10:56.435Z,9.43
2019-03-09T04:13:25.822Z,4.75
2019-03-09T04:15:55.224Z,9.28
2019-03-09T04:18:24.627Z,10.30
2019-03-09T04:20:53.713Z,9.55
2019-03-09T04:23:22.798Z,7.00
2019-03-09T04:25:51.871Z,8.73
2019-03-09T04:28:20.958Z,9.50
2019-03-09T04:30:50.322Z,6.35
2019-03-09T04:33:19.390Z,6.97
2019-03-09T04:35:48.463Z,7.85
2019-03-09T04:38:17.539Z,9.45
2019-03-09T04:40:46.622Z,7.60
2019-03-09T04:43:15.690Z,8.30
2019-03-09T04:45:44.762Z,6.42
2019-03-09T04:48:13.854Z,5.65
2019-03-09T04:50:42.926Z,6.75
2019-03-09T04:53:12.027Z,4.28
2019-03-09T04:55:42.078Z,5.47
2019-03-09T04:58:11.147Z,6.62
2019-03-09T05:00:40.502Z,4.45
2019-03-09T05:03:09.906Z,4.12
2019-03-09T05:05:38.986Z,4.42
2019-03-09T05:08:15.043Z,3.50
2019-03-09T05:10:49.930Z,5.03
2019-03-09T05:13:25.250Z,4.03
2019-03-09T05:18:22.639Z,3.17
2019-03-09T05:20:51.705Z,5.62
2019-03-09T05:23:20.819Z,5.72
2019-03-09T05:25:50.212Z,2.77
2019-03-09T05:28:19.278Z,6.35
2019-03-09T05:30:48.358Z,3.37
2019-03-09T05:33:17.438Z,4.90
2019-03-09T05:35:46.510Z,4.50
2019-03-09T05:38:15.593Z,4.30
2019-03-09T05:40:44.658Z,3.05
2019-03-09T05:43:14.000Z,2.60
2019-03-09T05:45:43.065Z,3.20
2019-03-09T05:48:12.142Z,3.37
2019-03-09T05:50:41.211Z,4.58
2019-03-09T05:53:15.338Z,3.50
2019-03-09T05:55:45.401Z,5.17
2019-03-09T05:58:14.722Z,3.35
2019-03-09T06:00:44.058Z,2.92
2019-03-09T06:03:13.137Z,4.80
2019-03-09T06:05:44.562Z,2.98
2019-03-09T06:08:13.635Z,3.50
2019-03-09T06:10:42.732Z,2.17
2019-03-09T06:13:11.874Z,2.83
2019-03-09T06:15:40.963Z,2.58
2019-03-09T06:18:10.042Z,1.98
2019-03-09T06:20:39.146Z,4.40
2019-03-09T06:23:08.219Z,3.15
2019-03-09T06:25:38.668Z,2.37
2019-03-09T06:28:07.887Z,1.67
2019-03-09T06:30:36.966Z,3.40
2019-03-09T06:33:15.270Z,2.15
2019-03-09T06:35:45.380Z,3.05
2019-03-09T06:38:35.678Z,2.45
2019-03-09T06:41:06.793Z,2.75
2019-03-09T06:43:35.867Z,1.10
2019-03-09T06:46:06.005Z,1.35
2019-03-09T06:48:35.090Z,1.77
2019-03-09T06:51:04.190Z,2.55
2019-03-09T06:53:33.263Z,1.50
2019-03-09T06:56:02.338Z,2.80
2019-03-09T06:58:31.655Z,1.60
2019-03-09T07:01:02.622Z,3.08
2019-03-09T07:03:31.716Z,2.25
2019-03-09T07:06:00.783Z,2.05
2019-03-09T07:08:29.854Z,2.47
2019-03-09T07:10:58.938Z,1.77
2019-03-09T07:13:28.007Z,2.55
2019-03-09T07:15:57.079Z,1.20
2019-03-09T07:18:26.479Z,2.45
2019-03-09T07:20:56.618Z,1.82
2019-03-09T07:23:25.711Z,0.80
2019-03-09T07:25:54.782Z,2.10
2019-03-09T07:28:23.911Z,1.62
2019-03-09T07:30:52.983Z,1.05
2019-03-09T07:33:22.062Z,1.62
2019-03-09T07:35:51.134Z,5.25
2019-03-09T07:38:20.228Z,1.02
2019-03-09T07:40:49.302Z,1.02
2019-03-09T07:43:18.378Z,1.17
2019-03-09T07:45:47.453Z,1.27
2019-03-09T07:48:16.536Z,1.02
2019-03-09T07:50:45.859Z,1.02
2019-03-09T07:53:14.933Z,1.57
2019-03-09T07:55:44.003Z,1.85
2019-03-09T07:58:13.086Z,0.98
2019-03-09T08:00:42.158Z,1.45
2019-03-09T08:03:11.234Z,1.40
2019-03-09T08:05:40.310Z,1.37
2019-03-09T08:08:09.378Z,1.12
2019-03-09T08:10:38.467Z,1.75
2019-03-09T08:13:07.831Z,1.10
2019-03-09T08:15:36.910Z,1.12
2019-03-09T08:18:06.051Z,0.80
2019-03-09T08:20:35.127Z,3.08
2019-03-09T08:23:05.181Z,1.35
2019-03-09T08:25:34.251Z,1.30
2019-03-09T08:28:03.661Z,2.12
2019-03-09T08:30:34.069Z,1.55
2019-03-09T08:33:04.226Z,1.50
2019-03-09T08:35:33.298Z,1.40
2019-03-09T08:38:02.382Z,1.30
2019-03-09T08:40:31.498Z,1.87
2019-03-09T08:43:00.883Z,1.47
2019-03-09T08:45:30.293Z,1.55
2019-03-09T08:47:59.367Z,3.42
2019-03-09T08:50:28.447Z,1.47
2019-03-09T08:52:57.566Z,1.40
2019-03-09T08:55:26.710Z,1.80
2019-03-09T08:57:55.795Z,3.15
2019-03-09T09:00:32.924Z,1.60
2019-03-09T09:03:02.136Z,1.75
2019-03-09T09:05:31.542Z,1.90
2019-03-09T09:08:00.875Z,2.17
2019-03-09T09:10:29.947Z,1.85
2019-03-09T09:12:59.023Z,3.30
2019-03-09T09:15:28.174Z,2.42
2019-03-09T09:17:57.255Z,1.98
2019-03-09T09:20:27.188Z,2.77
2019-03-09T09:22:56.267Z,2.00
2019-03-09T09:25:25.350Z,2.50
2019-03-09T09:27:54.499Z,1.98
2019-03-09T09:30:27.757Z,1.95
2019-03-09T09:32:56.839Z,2.00
2019-03-09T09:35:25.924Z,2.05
2019-03-09T09:37:55.024Z,1.90
2019-03-09T09:40:25.438Z,2.98
2019-03-09T09:42:54.685Z,4.47
2019-03-09T09:45:23.770Z,2.70
2019-03-09T09:47:52.850Z,2.05
2019-03-09T09:50:21.924Z,2.58
2019-03-09T09:52:51.005Z,3.00
2019-03-09T09:55:20.159Z,2.50
2019-03-09T09:57:49.564Z,2.17
2019-03-09T10:00:23.640Z,1.72
2019-03-09T10:02:52.717Z,2.25
2019-03-09T10:05:22.443Z,1.50
2019-03-09T10:07:51.802Z,3.77
2019-03-09T10:10:21.743Z,1.75
2019-03-09T10:12:50.895Z,1.60
2019-03-09T10:15:22.134Z,1.80
2019-03-09T10:17:51.210Z,1.87
2019-03-09T10:20:20.462Z,2.62
2019-03-09T10:22:49.546Z,1.90
2019-03-09T10:25:18.623Z,3.02
2019-03-09T10:27:47.721Z,2.10
2019-03-09T10:30:21.356Z,2.37
2019-03-09T10:32:50.447Z,2.45
2019-03-09T10:35:19.522Z,3.10
2019-03-09T10:37:49.342Z,2.30
2019-03-09T10:40:18.425Z,2.87
2019-03-09T10:42:47.505Z,2.55
2019-03-09T10:45:20.483Z,6.58
2019-03-09T10:47:51.822Z,3.22
2019-03-09T10:50:20.899Z,3.80
2019-03-09T10:52:50.289Z,4.12
2019-03-09T10:55:22.954Z,5.62
2019-03-09T10:57:52.043Z,5.47
2019-03-09T11:00:34.919Z,4.47
2019-03-09T11:03:04.004Z,4.42
2019-03-09T11:05:33.087Z,5.30
2019-03-09T11:08:02.174Z,7.08
2019-03-09T11:10:31.256Z,5.30
2019-03-09T11:13:00.498Z,4.58
2019-03-09T11:15:29.888Z,5.35
2019-03-09T11:17:58.944Z,7.35
2019-03-09T11:20:28.258Z,4.10
2019-03-09T11:22:57.334Z,5.00
2019-03-09T11:25:26.418Z,4.08
2019-03-09T11:27:55.494Z,3.92
2019-03-09T11:30:28.535Z,3.55
2019-03-09T11:32:57.610Z,3.30
2019-03-09T11:35:26.754Z,3.67
2019-03-09T11:37:56.145Z,3.15
2019-03-09T11:40:25.249Z,2.45
2019-03-09T11:42:54.330Z,3.27
2019-03-09T11:45:23.414Z,4.92
2019-03-09T11:47:52.491Z,2.90
2019-03-09T11:50:21.574Z,2.40
2019-03-09T11:52:50.652Z,2.83
2019-03-09T11:55:19.730Z,4.87
2019-03-09T11:57:48.816Z,2.90
2019-03-09T12:00:32.721Z,3.45
2019-03-09T12:03:01.801Z,3.02
2019-03-09T12:05:30.973Z,2.90
2019-03-09T12:08:00.229Z,3.55
2019-03-09T12:10:29.306Z,3.52
2019-03-09T12:12:58.391Z,4.45
2019-03-09T12:15:27.477Z,2.85
2019-03-09T12:17:57.619Z,5.05
2019-03-09T12:20:28.342Z,2.80
2019-03-09T12:23:01.726Z,3.30
2019-03-09T12:25:30.885Z,3.30
2019-03-09T12:28:00.191Z,3.08
2019-03-09T12:30:29.278Z,3.25
2019-03-09T12:32:58.694Z,3.33
2019-03-09T12:35:27.779Z,2.62
2019-03-09T12:37:56.854Z,3.00
2019-03-09T12:40:26.767Z,3.02
2019-03-09T12:42:55.843Z,2.60
2019-03-09T12:45:25.203Z,2.75
2019-03-09T12:47:54.286Z,3.58
2019-03-09T12:50:24.003Z,2.05
2019-03-09T12:52:53.091Z,2.30
2019-03-09T12:55:22.162Z,2.50
2019-03-09T12:57:51.247Z,2.92
2019-03-09T13:00:25.107Z,3.05
2019-03-09T13:02:54.192Z,2.50
2019-03-09T13:05:23.274Z,2.90
2019-03-09T13:07:52.347Z,2.60
2019-03-09T13:10:21.499Z,2.83
2019-03-09T13:12:50.746Z,2.92
2019-03-09T13:15:19.830Z,2.98
2019-03-09T13:17:48.906Z,2.52
2019-03-09T13:20:17.993Z,2.87
2019-03-09T13:22:47.070Z,2.95
2019-03-09T13:25:16.143Z,2.72
2019-03-09T13:27:45.497Z,2.47
2019-03-09T13:30:17.766Z,2.80
2019-03-09T13:32:46.859Z,1.80
2019-03-09T13:35:16.002Z,2.80
2019-03-09T13:37:45.350Z,1.55
2019-03-09T13:40:17.122Z,1.47
2019-03-09T13:42:46.208Z,3.25
2019-03-09T13:45:17.387Z,1.40
2019-03-09T13:47:46.478Z,1.70
2019-03-09T13:50:15.550Z,1.90
2019-03-09T13:52:44.663Z,1.25
2019-03-09T13:55:13.872Z,1.10
2019-03-09T13:57:43.067Z,1.20
2019-03-09T14:00:16.106Z,2.42
2019-03-09T14:02:45.184Z,1.30
2019-03-09T14:05:14.335Z,1.00
2019-03-09T14:07:43.418Z,1.35
2019-03-09T14:10:13.938Z,1.10
2019-03-09T14:12:43.016Z,1.00
2019-03-09T14:15:16.171Z,1.20
2019-03-09T14:17:45.254Z,1.60
2019-03-09T14:20:16.181Z,1.10
2019-03-09T14:22:45.621Z,1.20
2019-03-09T14:25:15.338Z,1.17
2019-03-09T14:27:44.429Z,0.95
2019-03-09T14:30:20.142Z,2.30
2019-03-09T14:32:49.230Z,1.00
2019-03-09T14:35:18.306Z,1.87
2019-03-09T14:37:47.743Z,1.22
2019-03-09T14:40:17.093Z,1.50
2019-03-09T14:42:46.175Z,0.62
2019-03-09T14:45:18.507Z,1.37
2019-03-09T14:47:47.594Z,0.90
2019-03-09T14:50:16.666Z,1.45
2019-03-09T14:52:45.759Z,0.80
2019-03-09T14:55:15.804Z,0.93
2019-03-09T14:57:44.895Z,0.60
2019-03-09T15:00:23.233Z,1.02
2019-03-09T15:02:52.321Z,3.52
2019-03-09T15:05:21.394Z,0.68
2019-03-09T15:07:50.482Z,1.00
2019-03-09T15:10:19.823Z,4.47
2019-03-09T15:12:48.898Z,0.65
2019-03-09T15:15:19.179Z,0.47
2019-03-09T15:17:48.547Z,2.77
2019-03-09T15:20:17.627Z,0.65
2019-03-09T15:22:46.741Z,0.93
2019-03-09T15:25:17.106Z,0.75
2019-03-09T15:27:47.156Z,2.05
2019-03-09T15:30:17.614Z,0.60
2019-03-09T15:32:46.694Z,0.60
2019-03-09T15:35:16.623Z,1.00
2019-03-09T15:37:45.731Z,1.67
2019-03-09T15:40:18.091Z,0.72
2019-03-09T15:42:47.186Z,1.52
2019-03-09T15:45:20.511Z,0.60
2019-03-09T15:47:49.602Z,1.05
2019-03-09T15:50:19.641Z,0.60
2019-03-09T15:52:48.710Z,1.82
2019-03-09T15:55:17.887Z,1.25
2019-03-09T15:57:47.043Z,1.57
2019-03-09T16:00:24.501Z,2.65
2019-03-09T16:02:53.569Z,2.05
2019-03-09T16:05:22.674Z,1.12
2019-03-09T16:07:52.814Z,1.70
2019-03-09T16:10:22.356Z,3.15
2019-03-09T16:26:02.613Z,2.92
2019-03-09T16:28:31.975Z,3.08
2019-03-09T16:31:01.051Z,2.75
2019-03-09T16:33:30.164Z,2.17
2019-03-09T16:35:59.247Z,3.55
2019-03-09T16:38:28.323Z,3.50
2019-03-09T16:40:57.666Z,5.00
2019-03-09T16:43:26.763Z,3.17
2019-03-09T16:45:55.834Z,4.30
2019-03-09T16:48:24.926Z,5.37
2019-03-09T16:50:54.467Z,5.00
2019-03-09T16:53:23.558Z,4.75
2019-03-09T16:55:52.638Z,4.50
2019-03-09T16:58:21.823Z,6.50
2019-03-09T17:00:50.971Z,5.67
2019-03-09T17:03:20.059Z,10.90
2019-03-09T17:05:49.450Z,5.37
2019-03-09T17:08:18.535Z,5.80
2019-03-09T17:10:47.630Z,7.00
2019-03-09T17:13:16.706Z,5.75
2019-03-09T17:15:45.806Z,5.17
2019-03-09T17:18:15.300Z,6.92
2019-03-09T17:20:44.357Z,6.15
2019-03-09T17:23:13.747Z,10.55
2019-03-09T17:25:43.158Z,5.50
2019-03-09T17:28:12.226Z,7.33
2019-03-09T17:30:41.651Z,7.58
2019-03-09T17:33:10.722Z,11.00
2019-03-09T17:35:39.823Z,9.95
2019-03-09T17:38:08.898Z,9.10
2019-03-09T17:40:37.998Z,9.28
2019-03-09T17:43:07.074Z,9.28
2019-03-09T17:45:36.439Z,10.15
2019-03-09T17:48:05.514Z,9.50
2019-03-09T17:50:34.602Z,12.20
2019-03-09T17:53:03.698Z,8.03
2019-03-09T17:55:32.787Z,8.15
2019-03-09T17:58:01.878Z,8.85
2019-03-09T18:00:42.102Z,11.90
2019-03-09T18:03:14.958Z,9.65
2019-03-09T18:05:44.481Z,7.03
2019-03-09T18:08:13.570Z,7.15
2019-03-09T18:10:48.327Z,9.00
2019-03-09T18:13:17.418Z,7.85
2019-03-09T18:15:46.499Z,10.63
2019-03-09T18:18:17.729Z,10.03
2019-03-09T18:20:51.982Z,11.38
2019-03-09T18:23:21.359Z,22.05
2019-03-09T18:25:50.459Z,19.05
2019-03-09T18:28:19.558Z,15.40
2019-03-09T18:30:48.654Z,14.35
2019-03-09T18:33:17.730Z,8.78
2019-03-09T18:35:46.824Z,13.03
2019-03-09T18:38:15.907Z,10.72
2019-03-09T18:40:45.239Z,9.35
2019-03-09T18:43:14.322Z,9.85
2019-03-09T18:45:43.402Z,9.78
2019-03-09T18:48:12.490Z,9.43
2019-03-09T18:50:41.831Z,7.45
2019-03-09T18:53:10.911Z,9.95
2019-03-09T18:55:40.070Z,7.67
2019-03-09T18:58:09.153Z,10.50
2019-03-09T19:00:38.234Z,7.03
2019-03-09T19:03:07.315Z,7.42
2019-03-09T19:05:36.406Z,7.28
2019-03-09T19:08:05.823Z,6.00
2019-03-09T19:10:34.908Z,7.33
2019-03-09T19:13:03.999Z,8.75
2019-03-09T19:15:33.080Z,10.40
2019-03-09T19:18:02.167Z,8.60
2019-03-09T19:20:31.251Z,9.78
2019-03-09T19:23:00.331Z,8.23
2019-03-09T19:25:29.408Z,8.33
2019-03-09T19:27:58.506Z,11.35
2019-03-09T19:30:27.597Z,11.85
2019-03-09T19:33:00.554Z,9.40
2019-03-09T19:35:27.795Z,9.85
2019-03-09T19:37:56.886Z,10.85
2019-03-09T19:40:25.969Z,7.05
2019-03-09T19:42:55.059Z,12.88
2019-03-09T19:45:24.151Z,12.55
2019-03-09T19:47:53.880Z,13.15
2019-03-09T19:50:25.402Z,8.78
2019-03-09T19:52:54.486Z,9.65
2019-03-09T19:55:23.576Z,10.32
2019-03-09T19:57:52.974Z,11.40
2019-03-09T20:00:22.426Z,9.40
2019-03-09T20:02:51.735Z,11.20
2019-03-09T20:05:20.830Z,8.63
2019-03-09T20:07:49.891Z,6.22
2019-03-09T20:10:20.244Z,8.73
2019-03-09T20:12:49.332Z,14.58
2019-03-09T20:15:19.344Z,10.18
2019-03-09T20:17:48.420Z,12.25
2019-03-09T20:20:20.338Z,7.58
2019-03-09T20:22:49.685Z,11.28
2019-03-09T20:25:18.764Z,12.78
2019-03-09T20:27:48.180Z,14.68
2019-03-09T20:30:18.414Z,12.20
2019-03-09T20:32:47.807Z,16.27
2019-03-09T20:35:16.894Z,21.68
2019-03-09T20:37:45.991Z,15.85
2019-03-09T20:40:16.342Z,20.32
2019-03-09T20:42:45.420Z,13.78
2019-03-09T20:45:23.646Z,13.35
2019-03-09T20:47:53.043Z,13.13
2019-03-09T20:50:23.524Z,14.50
2019-03-09T20:52:52.656Z,14.20
2019-03-09T20:55:21.981Z,11.38
2019-03-09T20:57:51.050Z,14.60
2019-03-09T21:00:21.398Z,11.30
2019-03-09T21:02:50.534Z,14.03
2019-03-09T21:05:19.615Z,11.57
2019-03-09T21:07:48.698Z,13.03
2019-03-09T21:10:18.741Z,9.40
2019-03-09T21:12:54.870Z,11.55
2019-03-09T21:15:23.958Z,11.15
2019-03-09T21:17:53.116Z,14.70
2019-03-09T21:20:22.199Z,11.20
2019-03-09T21:22:51.567Z,19.40
2019-03-09T21:25:20.966Z,12.53
2019-03-09T21:27:50.046Z,15.78
2019-03-09T21:30:19.131Z,18.50
2019-03-09T21:32:48.304Z,14.53
2019-03-09T21:35:17.386Z,9.13
2019-03-09T21:37:46.480Z,12.43
2019-03-09T21:40:15.850Z,13.20
2019-03-09T21:42:44.930Z,14.68
2019-03-09T21:45:14.903Z,14.33
2019-03-09T21:47:44.038Z,13.25
2019-03-09T21:50:17.338Z,16.48
2019-03-09T21:52:46.443Z,16.95
2019-03-09T21:55:16.365Z,18.48
2019-03-09T21:57:45.434Z,18.42
2019-03-09T22:00:19.546Z,19.02
2019-03-09T22:02:50.311Z,18.50
2019-03-09T22:05:19.828Z,18.42
2019-03-09T22:07:48.897Z,16.70
2019-03-09T22:10:18.226Z,12.70
2019-03-09T22:12:47.329Z,13.08
2019-03-09T22:15:17.750Z,13.93
2019-03-09T22:17:47.806Z,13.72
2019-03-09T22:20:20.378Z,15.13
2019-03-09T22:22:48.726Z,15.88
2019-03-09T22:25:18.182Z,13.93
2019-03-09T22:27:47.258Z,15.78
2019-03-09T22:30:18.541Z,13.72
2019-03-09T22:32:47.630Z,16.85
2019-03-09T22:35:16.702Z,15.75
2019-03-09T22:37:45.793Z,18.92
2019-03-09T22:40:16.206Z,16.77
2019-03-09T22:42:45.282Z,14.70
2019-03-09T22:45:16.022Z,14.80
2019-03-09T22:47:45.099Z,14.43
2019-03-09T22:50:19.207Z,16.57
2019-03-09T22:52:48.275Z,14.15
2019-03-09T22:55:17.354Z,16.15
2019-03-09T22:57:46.443Z,16.75
2019-03-09T23:00:20.830Z,22.80
2019-03-09T23:02:51.546Z,18.87
2019-03-09T23:05:20.626Z,12.63
2019-03-09T23:07:49.706Z,16.45
2019-03-09T23:10:20.690Z,19.95
2019-03-09T23:12:50.018Z,16.40
2019-03-09T23:15:19.458Z,20.17
2019-03-09T23:17:48.623Z,20.45
2019-03-09T23:20:17.698Z,20.62
2019-03-09T23:22:46.786Z,17.65
2019-03-09T23:25:15.907Z,19.35
2019-03-09T23:27:45.131Z,17.45
2019-03-09T23:30:21.478Z,17.23
2019-03-09T23:32:50.563Z,16.57
2019-03-09T23:35:20.318Z,17.73
2019-03-09T23:37:49.423Z,13.85
2019-03-09T23:40:19.758Z,18.40
2019-03-09T23:42:48.942Z,18.10
2019-03-09T23:45:20.431Z,17.92
2019-03-09T23:47:49.510Z,20.30
2019-03-09T23:50:19.073Z,16.67
2019-03-09T23:52:48.158Z,15.85
2019-03-09T23:55:22.478Z,14.20
2019-03-09T23:57:48.366Z,13.62
